Tring-Jonction, Canada
Current Conditions -  °F | °C
As of 12:00 PM on Thursday 23 Oct 2014 (Local Time) from CYQB Reporting Station
Broken Clouds Broken Clouds  
Wind Chill: 36°   Ceiling: 6500
Heat Index: 45°   Visibility: 30mi
Dew Point: 36°   Wind: 21mph
Humidity: 71%   Direction: 60°ENE
Pressure: 30.13"   Gusts: 28mph
Location:  46.27°N, 71°W
Report Text: CYQB 231600Z 06018G24KT 30SM FEW025 BKN065 07/02 A3013 RMK SC1SC6 SLP207
Loading
Personal Weather Stations






























Interactive Weather Map
Tropical Storm Tracking
New forecast layout! Learn more

10-Day Weather Forecast

Advertisements
Track Severe Weather on mobile